Time;durP1;ratioP1;P1;durP2;ratioP2;P2;SDS_P1;SDS_P2;PMS_P1;PMS_P2;Temp;Humidity;BMP_temperature;BMP_pressure;BME280_temperature;BME280_humidity;BME280_pressure;Samples;Min_cycle;Max_cycle;Signal;HPM_P1;HPM_P2
2022/04/27 00:00:33;;;;;;;11.63;10.00;;;;;;;12.72;100.00;96517.03;5127869;27;20059;-52
2022/04/27 00:03:02;;;;;;;12.85;10.35;;;;;;;12.41;100.00;96511.41;5122614;27;20083;-54
2022/04/27 00:05:31;;;;;;;11.00;9.80;;;;;;;12.07;100.00;96514.75;5124983;27;20085;-51
2022/04/27 00:08:00;;;;;;;11.70;10.32;;;;;;;12.03;100.00;96516.88;5124477;27;20141;-56
2022/04/27 00:10:29;;;;;;;11.95;10.45;;;;;;;12.43;100.00;96515.56;5125900;27;20045;-50
2022/04/27 00:12:58;;;;;;;12.05;10.07;;;;;;;12.57;100.00;96516.81;5123301;27;20077;-59
2022/04/27 00:15:28;;;;;;;12.15;10.60;;;;;;;12.34;100.00;96513.81;5124791;27;20469;-56
2022/04/27 00:17:56;;;;;;;11.57;10.38;;;;;;;12.31;100.00;96514.13;5126444;27;20086;-56
2022/04/27 00:20:24;;;;;;;11.70;10.35;;;;;;;12.11;100.00;96514.31;5125819;27;20476;-56
2022/04/27 00:22:53;;;;;;;12.98;10.75;;;;;;;11.77;100.00;96505.41;5124227;27;21020;-55
2022/04/27 00:25:23;;;;;;;11.73;10.52;;;;;;;12.23;100.00;96508.78;5127250;27;20075;-58
2022/04/27 00:27:53;;;;;;;13.98;10.60;;;;;;;11.60;100.00;96505.25;5122586;27;20063;-55
2022/04/27 00:30:21;;;;;;;12.30;10.30;;;;;;;11.59;100.00;96514.13;5122206;27;20152;-56
2022/04/27 00:32:49;;;;;;;11.80;10.55;;;;;;;11.93;100.00;96512.66;5127115;27;20128;-56
2022/04/27 00:35:18;;;;;;;14.57;10.77;;;;;;;11.39;100.00;96505.50;5127453;27;20063;-54
2022/04/27 00:37:46;;;;;;;13.98;11.18;;;;;;;11.24;100.00;96514.06;5124284;27;20062;-54
2022/04/27 00:40:14;;;;;;;12.98;11.25;;;;;;;11.33;100.00;96515.84;5122180;27;20077;-56
2022/04/27 00:42:45;;;;;;;15.93;11.55;;;;;;;11.47;100.00;96523.25;5127061;27;20039;-50
2022/04/27 00:45:15;;;;;;;14.35;12.15;;;;;;;11.59;100.00;96514.13;5118598;27;20078;-53
2022/04/27 00:47:43;;;;;;;16.00;12.73;;;;;;;11.78;100.00;96515.81;5124471;27;20079;-55
2022/04/27 00:50:12;;;;;;;15.05;11.60;;;;;;;11.15;100.00;96515.81;5123449;27;20055;-58
2022/04/27 00:52:41;;;;;;;12.77;11.48;;;;;;;10.85;100.00;96525.63;5104617;27;20526;-57
2022/04/27 00:55:10;;;;;;;14.75;12.18;;;;;;;10.89;100.00;96521.72;5127034;27;20074;-53
2022/04/27 00:57:40;;;;;;;13.90;12.05;;;;;;;10.76;100.00;96526.50;5104946;27;20066;-57
2022/04/27 01:00:09;;;;;;;14.20;11.30;;;;;;;10.67;100.00;96525.56;5120055;27;20039;-56
2022/04/27 01:02:39;;;;;;;13.32;11.48;;;;;;;10.83;100.00;96526.75;5121845;27;20079;-54
2022/04/27 01:05:09;;;;;;;15.10;12.50;;;;;;;10.81;100.00;96528.72;5127676;27;20081;-57
2022/04/27 01:07:39;;;;;;;13.32;11.75;;;;;;;10.56;100.00;96530.97;5119658;27;20066;-55
2022/04/27 01:10:10;;;;;;;14.70;12.40;;;;;;;10.58;100.00;96529.06;5126446;27;20078;-56
2022/04/27 01:12:38;;;;;;;14.25;11.20;;;;;;;10.37;100.00;96536.31;5121861;27;20140;-55
2022/04/27 01:15:08;;;;;;;13.82;10.57;;;;;;;10.41;100.00;96532.41;5126565;27;20116;-53
2022/04/27 01:17:36;;;;;;;14.07;11.47;;;;;;;10.50;100.00;96530.75;5125515;27;20047;-51
2022/04/27 01:20:08;;;;;;;14.23;11.93;;;;;;;10.91;100.00;96529.50;5124991;27;20062;-57
2022/04/27 01:22:38;;;;;;;14.20;11.82;;;;;;;10.85;100.00;96530.09;5125280;27;20509;-53
2022/04/27 01:25:07;;;;;;;14.15;11.65;;;;;;;10.84;100.00;96531.03;5120805;27;20514;-52
2022/04/27 01:27:35;;;;;;;16.23;12.45;;;;;;;10.48;100.00;96536.16;5121361;27;20114;-55
2022/04/27 01:30:04;;;;;;;15.93;12.10;;;;;;;10.84;100.00;96537.19;5122716;27;20078;-55
2022/04/27 01:32:32;;;;;;;17.63;12.20;;;;;;;10.90;100.00;96538.38;5124595;27;20095;-55
2022/04/27 01:35:00;;;;;;;14.50;11.93;;;;;;;10.63;100.00;96542.66;5120443;27;20063;-53
2022/04/27 01:40:16;;;;;;;14.88;12.00;;;;;;;10.77;100.00;96543.16;5123880;27;20053;-55
2022/04/27 01:42:44;;;;;;;14.18;11.80;;;;;;;10.54;100.00;96538.22;5122746;27;20040;-57
2022/04/27 01:45:13;;;;;;;14.43;11.95;;;;;;;10.30;100.00;96545.75;5101578;27;20067;-55
2022/04/27 01:47:41;;;;;;;15.23;12.07;;;;;;;11.06;100.00;96538.59;5105742;27;20063;-53
2022/04/27 01:50:09;;;;;;;15.95;12.38;;;;;;;10.57;100.00;96542.38;5123663;27;20120;-59
2022/04/27 01:55:25;;;;;;;16.70;12.55;;;;;;;10.68;100.00;96540.41;5122355;27;20070;-55
2022/04/27 01:57:54;;;;;;;15.93;12.30;;;;;;;10.41;100.00;96545.59;5118530;27;20062;-59
2022/04/27 02:00:22;;;;;;;15.60;12.48;;;;;;;10.44;100.00;96545.31;5121652;27;20054;-58
2022/04/27 02:02:51;;;;;;;14.43;11.50;;;;;;;10.54;100.00;96547.94;5124082;27;20059;-57
2022/04/27 02:05:19;;;;;;;16.10;11.90;;;;;;;10.48;100.00;96546.69;5122174;27;20066;-54
2022/04/27 02:07:47;;;;;;;14.05;11.80;;;;;;;10.47;100.00;96547.69;5120846;27;20067;-53
2022/04/27 02:10:16;;;;;;;13.85;11.85;;;;;;;10.54;100.00;96553.22;5123731;27;20058;-52
2022/04/27 02:12:46;;;;;;;13.45;11.55;;;;;;;10.09;100.00;96549.34;5099637;27;20081;-53
2022/04/27 02:15:14;;;;;;;14.60;11.93;;;;;;;9.99;100.00;96551.16;5119404;27;20483;-56
2022/04/27 02:17:43;;;;;;;15.20;11.65;;;;;;;10.22;100.00;96546.44;5119128;27;20074;-55
2022/04/27 02:20:12;;;;;;;14.68;11.77;;;;;;;10.25;100.00;96547.94;5121523;28;20056;-52
2022/04/27 02:22:40;;;;;;;14.50;12.20;;;;;;;9.99;100.00;96552.00;5120763;27;20066;-54
2022/04/27 02:25:09;;;;;;;14.65;11.85;;;;;;;10.17;100.00;96549.47;5116116;28;20508;-52
2022/04/27 02:27:37;;;;;;;14.63;12.23;;;;;;;10.81;100.00;96549.81;5115610;28;20562;-54
2022/04/27 02:30:08;;;;;;;14.93;12.05;;;;;;;11.34;100.00;96552.63;5119452;28;20071;-55
2022/04/27 02:32:37;;;;;;;14.52;12.13;;;;;;;10.97;100.00;96552.66;5122411;28;20067;-54
2022/04/27 02:35:06;;;;;;;16.25;12.73;;;;;;;11.08;100.00;96557.78;5118910;28;20071;-57
2022/04/27 02:37:35;;;;;;;15.43;12.25;;;;;;;10.80;100.00;96558.69;5116188;28;20066;-54
2022/04/27 02:40:05;;;;;;;15.07;12.50;;;;;;;10.87;100.00;96560.63;5119808;28;20425;-55
2022/04/27 02:42:33;;;;;;;14.15;11.70;;;;;;;10.38;100.00;96566.97;5121952;28;20070;-56
2022/04/27 02:45:02;;;;;;;14.30;11.90;;;;;;;10.00;100.00;96568.63;5110546;28;20324;-51
2022/04/27 02:47:31;;;;;;;15.05;11.70;;;;;;;10.66;100.00;96567.88;5122331;28;20077;-54
2022/04/27 02:52:47;;;;;;;16.02;12.32;;;;;;;11.25;100.00;96572.00;5116182;27;20055;-55
2022/04/27 02:55:16;;;;;;;16.25;12.63;;;;;;;11.26;100.00;96570.19;5118611;27;20548;-51
2022/04/27 02:57:44;;;;;;;15.50;12.50;;;;;;;11.11;100.00;96573.31;5128121;27;20470;-53
2022/04/27 03:00:13;;;;;;;16.98;12.70;;;;;;;10.32;100.00;96578.91;5124539;27;20165;-58
2022/04/27 03:02:42;;;;;;;17.08;12.85;;;;;;;10.90;100.00;96576.16;5131003;27;20067;-52
2022/04/27 03:05:11;;;;;;;16.10;13.20;;;;;;;10.89;100.00;96579.78;5120055;27;20078;-56
2022/04/27 03:07:39;;;;;;;15.40;12.88;;;;;;;11.06;100.00;96582.63;5129115;27;20500;-50
2022/04/27 03:10:09;;;;;;;17.58;13.18;;;;;;;11.17;100.00;96588.56;5118810;27;20067;-53
2022/04/27 03:12:37;;;;;;;15.33;12.97;;;;;;;11.24;100.00;96582.69;5120480;27;20066;-50
2022/04/27 03:15:06;;;;;;;15.35;12.38;;;;;;;10.82;100.00;96586.59;5118830;27;20075;-53
2022/04/27 03:17:35;;;;;;;15.32;12.15;;;;;;;11.04;100.00;96585.41;5119053;27;20087;-50
2022/04/27 03:20:05;;;;;;;16.80;12.82;;;;;;;10.90;100.00;96585.88;5116429;27;20063;-57
2022/04/27 03:22:34;;;;;;;15.80;12.88;;;;;;;11.03;100.00;96582.94;5116541;27;20462;-52
2022/04/27 03:25:03;;;;;;;16.45;13.05;;;;;;;10.62;100.00;96588.44;5120977;27;20186;-56
2022/04/27 03:27:31;;;;;;;18.77;13.98;;;;;;;10.93;100.00;96594.34;5119790;27;20074;-53
2022/04/27 03:29:59;;;;;;;15.15;12.52;;;;;;;10.79;100.00;96588.69;5118377;27;20079;-54
2022/04/27 03:32:28;;;;;;;15.85;13.02;;;;;;;10.99;100.00;96592.94;5121245;27;20083;-53
2022/04/27 03:34:56;;;;;;;17.35;13.38;;;;;;;10.96;100.00;96590.59;5114236;27;20066;-53
2022/04/27 03:37:25;;;;;;;15.88;12.63;;;;;;;11.29;100.00;96593.66;5131660;27;20070;-56
2022/04/27 03:39:54;;;;;;;18.63;13.88;;;;;;;11.10;100.00;96592.75;5128309;27;20518;-59
2022/04/27 03:42:22;;;;;;;17.60;13.68;;;;;;;11.45;100.00;96591.22;5125381;27;20533;-58
2022/04/27 03:44:51;;;;;;;17.05;13.90;;;;;;;11.11;100.00;96596.22;5124079;27;20093;-54
2022/04/27 03:47:19;;;;;;;17.52;13.10;;;;;;;11.35;100.00;96599.16;5131361;27;20062;-55
2022/04/27 03:49:47;;;;;;;17.67;13.90;;;;;;;11.35;100.00;96604.44;5120381;27;20453;-55
2022/04/27 03:52:16;;;;;;;17.58;13.65;;;;;;;10.95;100.00;96606.56;5126464;27;20063;-53
2022/04/27 03:54:45;;;;;;;16.45;12.52;;;;;;;11.40;100.00;96617.25;5114033;27;20055;-51
2022/04/27 03:57:13;;;;;;;16.13;12.95;;;;;;;11.34;100.00;96612.53;5117526;27;20079;-56
2022/04/27 03:59:42;;;;;;;17.50;13.35;;;;;;;11.33;100.00;96621.44;5101128;28;20090;-57
2022/04/27 04:02:10;;;;;;;18.10;13.50;;;;;;;11.36;100.00;96624.63;5124956;27;20063;-53
2022/04/27 04:04:38;;;;;;;18.98;14.05;;;;;;;11.61;100.00;96625.75;5119749;27;20520;-54
2022/04/27 04:07:07;;;;;;;17.88;14.10;;;;;;;11.02;100.00;96626.13;5127313;27;20058;-54
2022/04/27 04:09:35;;;;;;;17.23;13.30;;;;;;;11.45;100.00;96630.81;5120923;27;20469;-57
2022/04/27 04:12:06;;;;;;;18.35;13.93;;;;;;;11.36;100.00;96632.53;5127448;27;20505;-58
2022/04/27 04:14:36;;;;;;;19.02;13.57;;;;;;;11.08;100.00;96647.50;5124626;27;20051;-55
2022/04/27 04:17:05;;;;;;;;;;;;;;;11.44;100.00;96639.72;5116710;27;20544;-53
2022/04/27 04:19:33;;;;;;;17.58;13.10;;;;;;;11.60;100.00;96647.88;5123319;27;19962;-54
2022/04/27 04:22:02;;;;;;;18.20;13.20;;;;;;;11.63;100.00;96644.94;5104172;28;20651;-57
2022/04/27 04:24:30;;;;;;;20.13;14.63;;;;;;;11.62;100.00;96651.19;5102397;27;20069;-55
2022/04/27 04:29:46;;;;;;;17.02;13.60;;;;;;;11.36;100.00;96653.66;5122316;27;20102;-56
2022/04/27 04:32:16;;;;;;;19.20;14.63;;;;;;;12.30;100.00;96649.97;5128694;27;20071;-57
2022/04/27 04:34:44;;;;;;;19.00;14.63;;;;;;;11.62;100.00;96658.28;5116838;27;20075;-59
2022/04/27 04:37:12;;;;;;;16.35;14.32;;;;;;;12.04;100.00;96655.16;5119779;27;20093;-57
2022/04/27 04:39:41;;;;;;;16.98;13.85;;;;;;;12.18;100.00;96657.31;5129354;27;20066;-56
2022/04/27 04:42:09;;;;;;;19.65;14.88;;;;;;;12.04;100.00;96663.09;5120922;27;20090;-57
2022/04/27 04:44:37;;;;;;;18.55;14.35;;;;;;;12.37;100.00;96666.06;5119891;27;20090;-58
2022/04/27 04:47:07;;;;;;;17.25;14.15;;;;;;;12.25;100.00;96668.94;5113792;27;20075;-54
2022/04/27 04:49:36;;;;;;;19.35;14.00;;;;;;;13.23;100.00;96672.38;5116223;27;20084;-55
2022/04/27 04:52:07;;;;;;;17.80;13.95;;;;;;;13.43;100.00;96673.03;5123614;27;20074;-53
2022/04/27 04:54:35;;;;;;;17.85;13.57;;;;;;;11.93;100.00;96673.88;5125522;27;20051;-56
2022/04/27 04:57:04;;;;;;;18.23;14.10;;;;;;;12.05;100.00;96678.81;5127779;27;20148;-56
2022/04/27 04:59:37;;;;;;;19.30;14.23;;;;;;;11.83;100.00;96682.63;5120159;27;20071;-54
2022/04/27 05:02:07;;;;;;;18.83;13.93;;;;;;;11.88;100.00;96683.06;5091582;28;20190;-54
2022/04/27 05:04:35;;;;;;;;;;;;;;;12.25;100.00;96686.59;5094482;28;20067;-58
2022/04/27 05:07:05;;;;;;;16.60;12.90;;;;;;;12.13;100.00;96687.81;5101219;27;19961;-54
2022/04/27 05:09:33;;;;;;;16.63;13.60;;;;;;;11.72;100.00;96698.69;5121382;27;20073;-54
2022/04/27 05:12:01;;;;;;;17.17;13.43;;;;;;;12.35;100.00;96693.50;5114374;27;20105;-55
2022/04/27 05:14:29;;;;;;;19.17;13.57;;;;;;;12.22;100.00;96700.16;5121969;27;20457;-57
2022/04/27 05:16:58;;;;;;;19.08;13.68;;;;;;;12.79;100.00;96703.31;5123007;27;20074;-52
2022/04/27 05:19:28;;;;;;;20.42;13.85;;;;;;;13.56;100.00;96706.22;5112119;27;20066;-56
2022/04/27 05:21:56;;;;;;;18.20;14.10;;;;;;;13.42;100.00;96699.66;5121378;27;20457;-58
2022/04/27 05:24:25;;;;;;;18.50;14.07;;;;;;;12.66;100.00;96714.28;5129553;27;20069;-55
2022/04/27 05:26:53;;;;;;;18.15;14.00;;;;;;;13.42;100.00;96708.47;5119044;27;20543;-55
2022/04/27 05:32:08;;;;;;;17.60;14.18;;;;;;;12.56;100.00;96711.72;5117045;27;20517;-55
2022/04/27 05:34:38;;;;;;;21.92;15.38;;;;;;;12.39;100.00;96717.00;5117948;27;20067;-56
2022/04/27 05:37:07;;;;;;;18.08;14.13;;;;;;;12.91;100.00;96723.28;5120601;27;20062;-53
2022/04/27 05:39:35;;;;;;;17.33;13.80;;;;;;;12.37;100.00;96722.44;5118074;27;20067;-52
2022/04/27 05:42:04;;;;;;;17.27;12.70;;;;;;;12.38;100.00;96728.56;5113148;27;20090;-56
2022/04/27 05:44:32;;;;;;;16.13;13.20;;;;;;;12.04;100.00;96732.66;5110096;28;20075;-54
2022/04/27 05:47:01;;;;;;;19.92;14.25;;;;;;;12.19;100.00;96735.63;5121146;27;20069;-53
2022/04/27 05:49:30;;;;;;;16.60;12.93;;;;;;;12.38;100.00;96737.31;5118717;27;20063;-52
2022/04/27 05:51:59;;;;;;;20.83;15.02;;;;;;;12.17;100.00;96736.75;5122590;27;20078;-52
2022/04/27 05:54:28;;;;;;;18.90;14.55;;;;;;;12.00;100.00;96748.94;5118645;28;20540;-55
2022/04/27 05:56:56;;;;;;;17.42;14.15;;;;;;;12.57;100.00;96739.84;5119464;27;20446;-54
2022/04/27 05:59:24;;;;;;;20.05;15.35;;;;;;;12.37;100.00;96748.06;5114836;28;20374;-54
2022/04/27 06:01:52;;;;;;;20.00;15.32;;;;;;;12.90;100.00;96745.44;5122722;28;20086;-56
2022/04/27 06:04:22;;;;;;;19.65;15.45;;;;;;;12.67;100.00;96754.81;5124518;28;20078;-55
2022/04/27 06:06:51;;;;;;;19.52;15.52;;;;;;;13.44;100.00;96754.16;5111491;28;20070;-56
2022/04/27 06:09:20;;;;;;;18.13;14.32;;;;;;;13.35;100.00;96754.25;5114418;28;20067;-51
2022/04/27 06:11:49;;;;;;;23.23;15.48;;;;;;;13.40;100.00;96758.13;5118528;28;20059;-53
2022/04/27 06:14:17;;;;;;;18.38;14.50;;;;;;;13.62;100.00;96755.94;5114338;28;20063;-50
2022/04/27 06:16:45;;;;;;;19.25;15.25;;;;;;;13.96;100.00;96767.41;5118386;28;20165;-55
2022/04/27 06:19:14;;;;;;;18.02;14.18;;;;;;;13.21;100.00;96760.91;5118510;28;20082;-54
2022/04/27 06:21:42;;;;;;;19.25;14.48;;;;;;;13.91;100.00;96760.91;5123721;28;20462;-57
2022/04/27 06:24:11;;;;;;;16.23;13.82;;;;;;;13.38;100.00;96765.38;5115595;28;20078;-56
2022/04/27 06:26:40;;;;;;;17.70;14.55;;;;;;;13.85;100.00;96770.31;5122123;27;20085;-54
2022/04/27 06:29:09;;;;;;;17.80;14.63;;;;;;;13.65;100.00;96764.41;5126116;27;20073;-56
2022/04/27 06:31:37;;;;;;;16.60;13.73;;;;;;;14.22;100.00;96767.38;5115912;27;20528;-51
2022/04/27 06:34:06;;;;;;;17.08;14.13;;;;;;;14.15;100.00;96757.56;5122438;27;20063;-57
2022/04/27 06:36:36;;;;;;;20.00;14.15;;;;;;;13.21;100.00;96768.84;5125718;27;20054;-55
2022/04/27 06:39:07;;;;;;;18.88;15.07;;;;;;;13.45;100.00;96768.25;5123135;27;20094;-57
2022/04/27 06:41:35;;;;;;;18.02;14.65;;;;;;;13.66;100.00;96766.09;5120073;27;20083;-55
2022/04/27 06:44:06;;;;;;;20.52;15.20;;;;;;;13.52;100.00;96775.44;5117978;27;20066;-52
2022/04/27 06:46:34;;;;;;;18.98;15.27;;;;;;;13.98;100.00;96778.69;5125538;27;20457;-59
2022/04/27 06:49:02;;;;;;;18.52;15.00;;;;;;;14.35;100.00;96780.19;5121111;27;20074;-57
2022/04/27 06:51:31;;;;;;;18.45;14.73;;;;;;;14.78;100.00;96775.69;5126155;27;20051;-52
2022/04/27 06:53:59;;;;;;;16.88;14.43;;;;;;;15.55;100.00;96770.88;5120590;27;20079;-55
2022/04/27 06:56:27;;;;;;;17.30;13.23;;;;;;;14.61;100.00;96781.94;5121870;27;20489;-56
2022/04/27 06:58:56;;;;;;;16.13;13.48;;;;;;;14.99;100.00;96777.03;5121876;27;20082;-56
2022/04/27 07:01:25;;;;;;;17.15;14.70;;;;;;;15.65;100.00;96770.72;5125290;27;20062;-52
2022/04/27 07:03:55;;;;;;;16.33;14.30;;;;;;;16.03;100.00;96777.13;5125866;27;20058;-58
2022/04/27 07:06:23;;;;;;;15.47;11.77;;;;;;;14.74;100.00;96782.31;5116559;27;20477;-58
2022/04/27 07:08:55;;;;;;;14.65;11.75;;;;;;;14.62;100.00;96783.59;5121881;27;20155;-57
2022/04/27 07:11:24;;;;;;;16.95;11.85;;;;;;;15.67;100.00;96776.72;5125531;27;20059;-52
2022/04/27 07:13:54;;;;;;;13.50;11.48;;;;;;;15.75;100.00;96778.53;5113060;27;20086;-55
2022/04/27 07:16:22;;;;;;;15.05;12.93;;;;;;;16.36;100.00;96769.88;5122681;27;20100;-56
2022/04/27 07:18:53;;;;;;;14.73;12.15;;;;;;;16.07;100.00;96778.47;5125759;27;20068;-53
2022/04/27 07:21:21;;;;;;;;;;;;;;;17.25;100.00;96775.69;5124700;27;20058;-55
2022/04/27 07:23:50;;;;;;;13.75;11.23;;;;;;;15.93;100.00;96788.97;5122686;27;19954;-57
2022/04/27 07:26:18;;;;;;;14.60;12.30;;;;;;;16.02;100.00;96790.63;5123588;27;20547;-56
2022/04/27 07:28:47;;;;;;;15.70;12.60;;;;;;;16.16;100.00;96784.59;5131281;27;20043;-56
2022/04/27 07:31:15;;;;;;;13.30;11.57;;;;;;;16.59;100.00;96787.75;5128918;27;20081;-57
2022/04/27 07:33:43;;;;;;;14.25;11.38;;;;;;;17.47;100.00;96782.00;5114137;27;20070;-55
2022/04/27 07:36:13;;;;;;;13.25;11.85;;;;;;;15.77;100.00;96784.53;5124470;27;20081;-52
2022/04/27 07:38:41;;;;;;;11.38;9.60;;;;;;;15.17;100.00;96793.66;5117099;27;20074;-57
2022/04/27 07:41:10;;;;;;;10.75;9.45;;;;;;;15.34;100.00;96781.19;5130664;27;20074;-53
2022/04/27 07:43:38;;;;;;;10.02;9.02;;;;;;;15.29;100.00;96791.50;5121066;27;20074;-56
2022/04/27 07:46:08;;;;;;;10.50;8.68;;;;;;;15.50;100.00;96793.66;5120594;27;20105;-53
2022/04/27 07:48:37;;;;;;;9.18;8.27;;;;;;;15.89;100.00;96802.59;5122515;27;20055;-56
2022/04/27 07:51:06;;;;;;;10.15;9.15;;;;;;;16.38;100.00;96794.50;5119839;27;20478;-57
2022/04/27 07:53:36;;;;;;;10.40;8.80;;;;;;;16.38;100.00;96807.81;5110986;28;20087;-57
2022/04/27 07:56:05;;;;;;;11.13;9.93;;;;;;;17.29;100.00;96805.47;5124378;27;20489;-56
2022/04/27 07:58:34;;;;;;;11.02;9.93;;;;;;;17.71;100.00;96806.78;5121229;27;20441;-52
2022/04/27 08:01:09;;;;;;;11.15;9.07;;;;;;;18.77;85.97;96813.69;5122410;27;20063;-56
2022/04/27 08:03:38;;;;;;;10.00;8.93;;;;;;;19.36;75.42;96807.31;5101712;28;20082;-52
2022/04/27 08:06:06;;;;;;;9.50;7.95;;;;;;;17.97;94.73;96817.09;5121037;27;20050;-54
2022/04/27 08:08:37;;;;;;;11.25;10.05;;;;;;;17.64;100.00;96822.69;5113038;27;20481;-59
2022/04/27 08:11:07;;;;;;;;;;;;;;;18.61;94.89;96817.34;5120501;27;20067;-58
2022/04/27 08:13:35;;;;;;;14.13;11.18;;;;;;;17.66;100.00;96818.03;5123926;27;20416;-51
2022/04/27 08:16:04;;;;;;;12.27;10.68;;;;;;;17.97;100.00;96825.94;5125414;27;20071;-57
2022/04/27 08:18:34;;;;;;;8.90;8.00;;;;;;;16.97;100.00;96819.88;5123326;27;20071;-53
2022/04/27 08:21:15;;;;;;;9.82;8.63;;;;;;;17.15;100.00;96817.75;5127673;27;20465;-58
2022/04/27 08:23:46;;;;;;;11.35;10.15;;;;;;;17.47;100.00;96823.84;5119694;27;20074;-58
2022/04/27 08:26:15;;;;;;;12.15;10.40;;;;;;;18.00;100.00;96824.75;5118385;27;20066;-55
2022/04/27 08:28:45;;;;;;;13.38;9.57;;;;;;;17.01;100.00;96832.66;5122124;27;20063;-52
2022/04/27 08:31:15;;;;;;;11.45;10.05;;;;;;;17.13;100.00;96838.41;5125058;27;20067;-57
2022/04/27 08:33:43;;;;;;;12.27;10.63;;;;;;;17.44;100.00;96833.00;5120128;27;20063;-52
2022/04/27 08:36:11;;;;;;;12.73;11.32;;;;;;;17.98;100.00;96834.75;5127376;27;20074;-56
2022/04/27 08:39:00;;;;;;;12.43;10.80;;;;;;;17.39;100.00;96839.91;5117582;27;20074;-52
2022/04/27 08:41:29;;;;;;;13.57;11.73;;;;;;;17.23;100.00;96836.34;5126399;27;20078;-58
2022/04/27 08:43:58;;;;;;;12.27;10.95;;;;;;;16.77;100.00;96841.59;5123860;27;20474;-55
2022/04/27 08:46:28;;;;;;;14.65;11.57;;;;;;;17.47;100.00;96840.66;5118348;27;20461;-53
2022/04/27 08:48:56;;;;;;;13.80;10.73;;;;;;;17.10;100.00;96846.75;5116112;27;20430;-57
2022/04/27 08:51:25;;;;;;;12.68;10.77;;;;;;;17.21;100.00;96846.34;5117884;27;20066;-59
2022/04/27 08:53:53;;;;;;;13.95;11.07;;;;;;;16.80;100.00;96857.25;5115978;27;20545;-59
2022/04/27 08:56:23;;;;;;;15.70;11.50;;;;;;;16.34;100.00;96849.09;5110912;27;20521;-55
2022/04/27 08:58:51;;;;;;;11.60;9.48;;;;;;;16.17;100.00;96857.25;5116876;27;20067;-54
2022/04/27 09:01:19;;;;;;;11.07;9.43;;;;;;;15.79;100.00;96860.47;5123129;27;20067;-54
2022/04/27 09:03:48;;;;;;;11.80;10.07;;;;;;;15.62;100.00;96866.75;5123032;27;20426;-53
2022/04/27 09:06:18;;;;;;;12.32;10.30;;;;;;;16.05;100.00;96862.94;5123420;27;20106;-50
2022/04/27 09:08:48;;;;;;;12.10;10.60;;;;;;;16.68;100.00;96863.09;5116593;27;20075;-58
2022/04/27 09:11:20;;;;;;;11.20;10.00;;;;;;;16.40;100.00;96873.34;5120533;27;20336;-54
2022/04/27 09:13:55;;;;;;;13.27;10.70;;;;;;;16.73;100.00;96871.41;5123380;27;20058;-55
2022/04/27 09:16:25;;;;;;;13.00;10.57;;;;;;;16.21;100.00;96874.53;5122972;27;20092;-54
2022/04/27 09:22:00;;;;;;;14.10;11.57;;;;;;;15.78;100.00;96880.09;5121083;27;20058;-58
2022/04/27 09:24:30;;;;;;;16.08;11.48;;;;;;;15.85;100.00;96875.75;5112302;27;20058;-57
2022/04/27 09:27:14;;;;;;;16.98;13.57;;;;;;;15.65;100.00;96885.84;5126777;27;20078;-55
2022/04/27 09:29:44;;;;;;;14.60;10.68;;;;;;;15.71;100.00;96887.06;5113822;27;20556;-52
2022/04/27 09:32:16;;;;;;;15.57;11.60;;;;;;;15.98;100.00;96885.91;5123138;27;20092;-53
2022/04/27 09:34:46;;;;;;;15.70;10.13;;;;;;;16.08;100.00;96883.06;5120466;27;20070;-55
2022/04/27 09:37:16;;;;;;;14.60;11.25;;;;;;;15.65;100.00;96885.84;5115882;27;20075;-56
2022/04/27 09:39:45;;;;;;;;;;;;;;;15.63;100.00;96892.34;5123641;27;20067;-57
2022/04/27 09:42:14;;;;;;;12.68;9.52;;;;;;;15.65;100.00;96890.34;5129367;27;19962;-53
2022/04/27 09:44:44;;;;;;;12.57;9.95;;;;;;;16.41;100.00;96893.63;5116918;27;20078;-56
2022/04/27 09:47:21;;;;;;;11.60;9.68;;;;;;;16.94;100.00;96890.31;5122063;27;20429;-59
2022/04/27 09:49:55;;;;;;;9.35;8.07;;;;;;;16.32;100.00;96888.34;5122108;27;20079;-51
2022/04/27 09:52:25;;;;;;;10.43;8.38;;;;;;;16.27;100.00;96893.31;5116132;27;20549;-54
2022/04/27 09:54:56;;;;;;;11.93;8.88;;;;;;;16.11;100.00;96898.69;5108996;28;20058;-55
2022/04/27 09:57:24;;;;;;;;;;;;;;;16.01;100.00;96888.22;5121673;28;20051;-56
2022/04/27 09:59:54;;;;;;;14.63;10.80;;;;;;;16.48;100.00;96894.59;5121073;28;19959;-53
2022/04/27 10:02:25;;;;;;;15.57;11.25;;;;;;;16.60;100.00;96893.25;5121101;27;20070;-50
2022/04/27 10:04:56;;;;;;;13.43;10.90;;;;;;;16.76;100.00;96892.41;5125884;27;20085;-52
2022/04/27 10:07:24;;;;;;;;;;;;;;;16.57;100.00;96896.25;5129354;27;20063;-54
2022/04/27 10:09:54;;;;;;;13.02;10.07;;;;;;;16.83;100.00;96899.53;5133096;27;19954;-53
2022/04/27 10:12:23;;;;;;;12.98;10.25;;;;;;;16.73;100.00;96901.53;5120998;27;20071;-56
2022/04/27 10:14:51;;;;;;;14.30;10.77;;;;;;;16.92;100.00;96899.47;5120347;27;20087;-52
2022/04/27 10:17:21;;;;;;;14.85;10.30;;;;;;;16.67;100.00;96907.53;5118728;27;20074;-56
2022/04/27 10:19:50;;;;;;;13.90;11.30;;;;;;;17.39;100.00;96909.22;5126377;27;20540;-50
2022/04/27 10:22:30;;;;;;;13.40;9.93;;;;;;;17.02;100.00;96903.59;5131612;27;20070;-55
2022/04/27 10:25:05;;;;;;;12.55;8.68;;;;;;;16.70;100.00;96899.19;5115070;27;20071;-52
2022/04/27 10:27:38;;;;;;;13.15;9.98;;;;;;;17.60;100.00;96897.91;5124058;27;20035;-48
2022/04/27 10:30:08;;;;;;;13.07;9.88;;;;;;;18.13;100.00;96891.66;5126897;27;20079;-54
2022/04/27 10:32:42;;;;;;;11.77;10.25;;;;;;;18.78;100.00;96897.34;5132877;27;20086;-56
2022/04/27 10:35:19;;;;;;;14.55;11.63;;;;;;;18.25;100.00;96905.41;5125962;27;20063;-53
2022/04/27 10:37:48;;;;;;;12.45;9.70;;;;;;;18.68;100.00;96898.41;5131142;27;20063;-55
2022/04/27 10:40:33;;;;;;;11.93;9.52;;;;;;;18.73;92.51;96905.94;5132674;27;20082;-46
2022/04/27 10:43:03;;;;;;;14.13;11.80;;;;;;;19.95;90.26;96899.88;5120152;27;20070;-54
2022/04/27 10:45:31;;;;;;;9.25;7.53;;;;;;;18.01;99.12;96909.94;5130664;27;20055;-53
2022/04/27 10:48:03;;;;;;;8.98;7.90;;;;;;;18.31;100.00;96914.53;5116235;27;20075;-52
2022/04/27 10:50:33;;;;;;;9.15;7.90;;;;;;;17.95;100.00;96916.00;5120178;27;20079;-54
2022/04/27 10:53:16;;;;;;;11.57;10.00;;;;;;;19.23;99.66;96906.94;5122868;27;20063;-53
2022/04/27 10:55:55;;;;;;;9.50;8.43;;;;;;;18.78;100.00;96914.19;5129824;27;20059;-54
2022/04/27 10:58:32;;;;;;;8.77;7.88;;;;;;;17.56;100.00;96916.09;5121398;27;20058;-48
2022/04/27 11:01:18;;;;;;;10.48;8.95;;;;;;;17.07;100.00;96917.22;5125464;27;20066;-49
2022/04/27 11:04:09;;;;;;;9.63;8.05;;;;;;;16.69;100.00;96916.19;5108617;27;20059;-50
2022/04/27 11:07:19;;;;;;;8.90;8.00;;;;;;;17.34;100.00;96920.41;5126695;27;20090;-51
2022/04/27 11:10:20;;;;;;;7.93;7.13;;;;;;;17.49;100.00;96921.31;5130871;27;20070;-48
2022/04/27 11:12:50;;;;;;;6.30;5.70;;;;;;;17.81;100.00;96923.97;5126049;27;20063;-49
2022/04/27 11:15:21;;;;;;;5.47;4.97;;;;;;;18.14;87.85;96922.69;5115354;27;20059;-51
2022/04/27 11:17:59;;;;;;;6.38;5.55;;;;;;;17.97;90.54;96922.00;5123324;27;20055;-47
2022/04/27 11:20:31;;;;;;;7.10;6.40;;;;;;;18.63;90.08;96919.53;5107104;27;20073;-51
2022/04/27 11:23:03;;;;;;;6.80;5.93;;;;;;;20.22;68.62;96911.66;5119334;27;20482;-53
2022/04/27 11:25:33;;;;;;;6.13;5.55;;;;;;;19.54;70.04;96921.91;5126176;27;20078;-46
2022/04/27 11:28:01;;;;;;;5.45;4.95;;;;;;;19.71;65.57;96920.66;5125571;27;20073;-49
2022/04/27 11:30:31;;;;;;;6.03;5.53;;;;;;;20.59;69.08;96911.34;5126497;27;20062;-56
2022/04/27 11:33:00;;;;;;;5.77;5.27;;;;;;;19.78;65.81;96915.38;5118877;27;20702;-52
2022/04/27 11:35:39;;;;;;;6.33;5.73;;;;;;;20.37;57.22;96915.91;5123983;27;20524;-54
2022/04/27 11:38:08;;;;;;;7.05;6.35;;;;;;;20.12;71.07;96915.47;5129828;27;20504;-49
2022/04/27 11:40:38;;;;;;;6.35;5.72;;;;;;;19.42;70.84;96925.06;5127745;27;20088;-49
2022/04/27 11:43:07;;;;;;;;;;;;;;;19.06;66.01;96932.25;5128967;27;20035;-50